createdAt,value
2023-10-25T00:08:15.582Z,2.83
2023-10-25T00:18:19.122Z,3.55
2023-10-25T00:28:21.290Z,4.30
2023-10-25T00:38:24.835Z,3.70
2023-10-25T00:48:27.695Z,3.65
2023-10-25T00:58:31.940Z,4.63
2023-10-25T01:08:34.308Z,3.13
2023-10-25T01:18:37.810Z,2.88
2023-10-25T01:28:41.205Z,3.60
2023-10-25T01:38:43.200Z,2.38
2023-10-25T01:48:47.091Z,3.33
2023-10-25T01:58:49.129Z,3.80
2023-10-25T02:08:52.592Z,3.30
2023-10-25T02:18:55.945Z,2.80
2023-10-25T02:28:59.669Z,2.58
2023-10-25T02:39:01.680Z,2.65
2023-10-25T02:49:05.159Z,2.22
2023-10-25T02:59:07.240Z,1.90
2023-10-25T03:09:10.570Z,2.78
2023-10-25T03:19:12.583Z,1.77
2023-10-25T03:29:16.023Z,1.92
2023-10-25T03:39:18.069Z,1.83
2023-10-25T03:49:21.443Z,1.25
2023-10-25T03:59:23.557Z,1.52
2023-10-25T04:09:26.916Z,1.48
2023-10-25T04:19:28.835Z,1.50
2023-10-25T04:29:32.207Z,1.83
2023-10-25T04:39:34.174Z,2.13
2023-10-25T04:49:38.386Z,2.10
2023-10-25T04:59:40.482Z,2.30
2023-10-25T05:09:44.894Z,1.92
2023-10-25T05:19:47.578Z,3.33
2023-10-25T05:29:51.513Z,6.78
2023-10-25T05:39:54.057Z,8.68
2023-10-25T05:49:58.177Z,13.27
2023-10-25T06:00:00.718Z,12.57
2023-10-25T06:10:05.189Z,14.32
2023-10-25T06:20:08.272Z,13.38
2023-10-25T08:54:37.840Z,12.38
2023-10-25T09:04:58.285Z,10.90
2023-10-25T09:15:00.620Z,12.35
2023-10-25T09:25:04.385Z,14.98
2023-10-25T09:35:08.488Z,15.10
2023-10-25T09:45:16.191Z,13.07
2023-10-25T09:55:22.386Z,11.80
2023-10-25T10:05:31.371Z,9.50
2023-10-25T10:16:00.540Z,8.57
2023-10-25T10:26:03.926Z,8.27
2023-10-25T10:36:08.198Z,6.55
2023-10-25T10:46:12.995Z,6.05
2023-10-25T10:56:15.021Z,6.00
2023-10-25T11:06:18.380Z,6.32
2023-10-25T11:16:21.288Z,5.03
2023-10-25T11:26:25.314Z,4.43
2023-10-25T11:36:29.451Z,4.95
2023-10-25T11:46:39.959Z,3.72
2023-10-25T11:56:41.927Z,5.28
2023-10-25T12:06:45.374Z,3.33
2023-10-25T12:16:47.320Z,4.15
2023-10-25T12:26:50.755Z,4.15
2023-10-25T12:36:54.298Z,6.20
2023-10-25T12:46:57.966Z,3.70
2023-10-25T12:57:00.000Z,3.03
2023-10-25T13:07:03.611Z,4.68
2023-10-25T13:17:19.001Z,3.38
2023-10-25T13:27:23.888Z,3.38
2023-10-25T13:37:26.390Z,2.92
2023-10-25T13:47:29.817Z,3.83
2023-10-25T13:57:31.774Z,3.20
2023-10-25T14:07:35.194Z,2.95
2023-10-25T14:17:37.304Z,4.32
2023-10-25T14:27:40.724Z,3.92
2023-10-25T14:37:42.758Z,4.00
2023-10-25T14:47:46.272Z,4.90
2023-10-25T14:57:48.301Z,4.43
2023-10-25T15:07:51.637Z,4.53
2023-10-25T15:17:53.632Z,4.03
2023-10-25T15:27:56.969Z,3.80
2023-10-25T15:37:58.950Z,4.25
2023-10-25T15:48:02.359Z,4.28
2023-10-25T15:58:04.507Z,4.38
2023-10-25T16:08:07.870Z,3.80
2023-10-25T16:18:09.879Z,4.50
2023-10-25T16:28:13.360Z,4.97
2023-10-25T16:38:16.701Z,4.75
2023-10-25T16:48:20.246Z,7.75
2023-10-25T16:58:22.542Z,5.50
2023-10-25T17:08:26.067Z,6.28
2023-10-25T17:18:28.878Z,4.95
2023-10-25T17:28:32.602Z,4.78
2023-10-25T17:38:36.861Z,5.88
2023-10-25T17:48:40.777Z,5.88
2023-10-25T17:58:42.810Z,6.32
2023-10-25T18:08:46.283Z,5.85
2023-10-25T18:18:50.731Z,7.80
2023-10-25T18:28:54.104Z,8.32
2023-10-25T18:38:56.199Z,9.00
2023-10-25T18:48:59.582Z,7.57
2023-10-25T18:59:01.608Z,8.20
2023-10-25T19:09:05.246Z,8.25
2023-10-25T19:19:07.660Z,8.52
2023-10-25T19:29:11.120Z,8.48
2023-10-25T19:39:13.145Z,10.00
2023-10-25T19:49:16.549Z,8.13
2023-10-25T19:59:18.497Z,7.72
2023-10-25T20:09:22.006Z,8.52
2023-10-25T20:19:24.035Z,10.45
2023-10-25T20:29:27.373Z,9.82
2023-10-25T20:39:29.312Z,10.25
2023-10-25T20:49:32.649Z,10.43
2023-10-25T20:59:34.824Z,8.80
2023-10-25T21:09:38.268Z,9.38
2023-10-25T21:19:40.296Z,8.90
2023-10-25T21:29:43.695Z,9.45
2023-10-25T21:39:45.722Z,9.32
2023-10-25T21:49:53.400Z,8.30
2023-10-25T21:59:55.496Z,12.38
2023-10-25T22:09:58.887Z,10.15
2023-10-25T22:20:00.836Z,10.27
2023-10-25T22:30:04.887Z,9.25
2023-10-25T22:40:08.517Z,8.02
2023-10-25T22:50:12.004Z,8.85
2023-10-25T23:00:15.336Z,8.43
2023-10-25T23:10:18.743Z,9.15
2023-10-25T23:20:20.714Z,12.20
2023-10-25T23:30:24.073Z,11.18
2023-10-25T23:40:26.066Z,12.23
2023-10-25T23:50:29.484Z,12.60
